TAE YMMB-YMML
Flight info
| Callsign | TAE |
|---|---|
| Flight time | 0h 20m |
| Altitude | 6000 |
| Route | MMBNM DCT MMBNF DCT MMBNI DCT D086J DCT DUGOT DCT D050J DCT SUSAK DCT RML01 DCT ROKDL DCT MMLSH |
| Aircraft | PC12/L-SDFGRWY/S |
Departure
| Time | 2026-04-15 08:58 |
|---|---|
| Airport | Melbourne Moorabbin Airport (YMMB) |
Arrival
| Time | 2026-04-15 09:19 |
|---|---|
| Airport | Melbourne Airport (YMML) |
| Time | Latitude | Longitude | Altitude | Speed | Heading |
|---|---|---|---|---|---|
| 2026-04-15 08:50 | -37.97487 | 145.09557 | 55 ft | 0 kts | 288° |
| 2026-04-15 08:53 | -37.97488 | 145.09555 | 54 ft | 0 kts | 246° |
| 2026-04-15 08:54 | -37.97496 | 145.09559 | 54 ft | 7 kts | 142° |
| 2026-04-15 08:54 | -37.97581 | 145.09632 | 53 ft | 19 kts | 175° |
| 2026-04-15 08:54 | -37.97740 | 145.09645 | 51 ft | 23 kts | 175° |
| 2026-04-15 08:54 | -37.97948 | 145.09664 | 47 ft | 26 kts | 176° |
| 2026-04-15 08:55 | -37.98110 | 145.09679 | 46 ft | 23 kts | 176° |
| 2026-04-15 08:55 | -37.98253 | 145.09690 | 45 ft | 1 kts | 176° |
| 2026-04-15 08:55 | -37.98284 | 145.09694 | 45 ft | 19 kts | 174° |
| 2026-04-15 08:55 | -37.98384 | 145.09760 | 44 ft | 18 kts | 92° |
| 2026-04-15 08:56 | -37.98372 | 145.09944 | 43 ft | 19 kts | 85° |
| 2026-04-15 08:56 | -37.98371 | 145.09962 | 43 ft | 0 kts | 82° |
| 2026-04-15 08:57 | -37.98369 | 145.09999 | 41 ft | 10 kts | 88° |
| 2026-04-15 08:57 | -37.98361 | 145.10027 | 41 ft | 0 kts | 45° |
| 2026-04-15 08:57 | -37.98349 | 145.10031 | 41 ft | 8 kts | 3° |
| 2026-04-15 08:58 | -37.98061 | 145.10007 | 48 ft | 73 kts | 355° |
| 2026-04-15 08:58 | -37.96875 | 145.09857 | 581 ft | 117 kts | 353° |
| 2026-04-15 08:58 | -37.96031 | 145.09722 | 1144 ft | 129 kts | 351° |
| 2026-04-15 08:59 | -37.95111 | 145.09551 | 1741 ft | 137 kts | 348° |
| 2026-04-15 08:59 | -37.94198 | 145.09371 | 2549 ft | 125 kts | 345° |
| 2026-04-15 08:59 | -37.93332 | 145.09186 | 3228 ft | 127 kts | 343° |
| 2026-04-15 08:59 | -37.92475 | 145.08936 | 3904 ft | 127 kts | 339° |
| 2026-04-15 09:00 | -37.91601 | 145.08660 | 4534 ft | 132 kts | 343° |
| 2026-04-15 09:00 | -37.90678 | 145.08469 | 5171 ft | 136 kts | 345° |
| 2026-04-15 09:00 | -37.89736 | 145.08332 | 5799 ft | 141 kts | 346° |
| 2026-04-15 09:00 | -37.88667 | 145.08169 | 6022 ft | 172 kts | 347° |
| 2026-04-15 09:01 | -37.87469 | 145.07981 | 6013 ft | 157 kts | 347° |
| 2026-04-15 09:01 | -37.86418 | 145.07848 | 5993 ft | 147 kts | 348° |
| 2026-04-15 09:01 | -37.85405 | 145.07927 | 5997 ft | 144 kts | 358° |
| 2026-04-15 09:01 | -37.84405 | 145.08052 | 5996 ft | 145 kts | 360° |
| 2026-04-15 09:02 | -37.83420 | 145.08209 | 6000 ft | 145 kts | 360° |
| 2026-04-15 09:02 | -37.82418 | 145.08368 | 5995 ft | 145 kts | 360° |
| 2026-04-15 09:02 | -37.81416 | 145.08522 | 5992 ft | 146 kts | 0° |
| 2026-04-15 09:02 | -37.80257 | 145.08658 | 6023 ft | 191 kts | 360° |
| 2026-04-15 09:03 | -37.78818 | 145.08795 | 6027 ft | 219 kts | 360° |
| 2026-04-15 09:03 | -37.77235 | 145.08932 | 6024 ft | 236 kts | 360° |
| 2026-04-15 09:03 | -37.75610 | 145.09068 | 6017 ft | 227 kts | 360° |
| 2026-04-15 09:03 | -37.74056 | 145.09201 | 6019 ft | 221 kts | 359° |
| 2026-04-15 09:04 | -37.72585 | 145.08899 | 5971 ft | 214 kts | 336° |
| 2026-04-15 09:04 | -37.71253 | 145.08108 | 5903 ft | 214 kts | 330° |
| 2026-04-15 09:04 | -37.69927 | 145.07283 | 5788 ft | 215 kts | 330° |
| 2026-04-15 09:04 | -37.68534 | 145.06623 | 5745 ft | 215 kts | 349° |
| 2026-04-15 09:05 | -37.67042 | 145.06625 | 5866 ft | 213 kts | 358° |
| 2026-04-15 09:05 | -37.65572 | 145.06568 | 5980 ft | 210 kts | 350° |
| 2026-04-15 09:05 | -37.64110 | 145.06341 | 5917 ft | 216 kts | 348° |
| 2026-04-15 09:05 | -37.62561 | 145.06058 | 5380 ft | 227 kts | 348° |
| 2026-04-15 09:06 | -37.61028 | 145.05868 | 5380 ft | 219 kts | 1° |
| 2026-04-15 09:06 | -37.59590 | 145.06461 | 5368 ft | 223 kts | 28° |
| 2026-04-15 09:06 | -37.58443 | 145.07777 | 5405 ft | 224 kts | 52° |
| 2026-04-15 09:06 | -37.57868 | 145.09600 | 5419 ft | 227 kts | 80° |
| 2026-04-15 09:07 | -37.57994 | 145.11573 | 5434 ft | 227 kts | 111° |
| 2026-04-15 09:07 | -37.58977 | 145.13089 | 5437 ft | 226 kts | 148° |
| 2026-04-15 09:07 | -37.60424 | 145.13759 | 5325 ft | 225 kts | 176° |
| 2026-04-15 09:07 | -37.61918 | 145.13436 | 5345 ft | 215 kts | 209° |
| 2026-04-15 09:08 | -37.63010 | 145.12227 | 5419 ft | 208 kts | 238° |
| 2026-04-15 09:08 | -37.63488 | 145.10535 | 5437 ft | 203 kts | 265° |
| 2026-04-15 09:08 | -37.63215 | 145.08841 | 5445 ft | 204 kts | 297° |
| 2026-04-15 09:08 | -37.62250 | 145.07522 | 5417 ft | 209 kts | 324° |
| 2026-04-15 09:09 | -37.60877 | 145.06857 | 5408 ft | 219 kts | 343° |
| 2026-04-15 09:09 | -37.59340 | 145.06451 | 5499 ft | 230 kts | 346° |
| 2026-04-15 09:09 | -37.57732 | 145.06147 | 5561 ft | 235 kts | 350° |
| 2026-04-15 09:09 | -37.56099 | 145.05945 | 5694 ft | 236 kts | 354° |
| 2026-04-15 09:10 | -37.54432 | 145.06019 | 5706 ft | 241 kts | 1° |
| 2026-04-15 09:10 | -37.52780 | 145.05898 | 5587 ft | 243 kts | 340° |
| 2026-04-15 09:10 | -37.51447 | 145.04727 | 5495 ft | 236 kts | 307° |
| 2026-04-15 09:10 | -37.50809 | 145.02910 | 5385 ft | 211 kts | 285° |
| 2026-04-15 09:11 | -37.50495 | 145.01216 | 5130 ft | 186 kts | 282° |
| 2026-04-15 09:11 | -37.50336 | 144.99704 | 5002 ft | 162 kts | 273° |
| 2026-04-15 09:11 | -37.50308 | 144.98361 | 4734 ft | 151 kts | 272° |
| 2026-04-15 09:11 | -37.50286 | 144.97035 | 4322 ft | 151 kts | 272° |
| 2026-04-15 09:12 | -37.50282 | 144.95740 | 3942 ft | 149 kts | 267° |
| 2026-04-15 09:12 | -37.50495 | 144.94463 | 3560 ft | 149 kts | 251° |
| 2026-04-15 09:12 | -37.50830 | 144.93234 | 3177 ft | 147 kts | 261° |
| 2026-04-15 09:12 | -37.50949 | 144.92008 | 3001 ft | 130 kts | 266° |
| 2026-04-15 09:13 | -37.51045 | 144.90858 | 3005 ft | 141 kts | 265° |
| 2026-04-15 09:13 | -37.51142 | 144.89591 | 3017 ft | 147 kts | 265° |
| 2026-04-15 09:13 | -37.51245 | 144.88297 | 3015 ft | 149 kts | 265° |
| 2026-04-15 09:13 | -37.51348 | 144.87016 | 3014 ft | 148 kts | 265° |
| 2026-04-15 09:14 | -37.51453 | 144.85674 | 3018 ft | 162 kts | 265° |
| 2026-04-15 09:14 | -37.51565 | 144.84183 | 3017 ft | 177 kts | 266° |
| 2026-04-15 09:14 | -37.51680 | 144.82706 | 3012 ft | 161 kts | 266° |
| 2026-04-15 09:14 | -37.51794 | 144.81354 | 2999 ft | 150 kts | 265° |
| 2026-04-15 09:15 | -37.52356 | 144.80559 | 3394 ft | 137 kts | 167° |
| 2026-04-15 09:15 | -37.53319 | 144.81007 | 3286 ft | 159 kts | 164° |
| 2026-04-15 09:15 | -37.54390 | 144.81389 | 3305 ft | 161 kts | 168° |
| 2026-04-15 09:15 | -37.55513 | 144.81722 | 3144 ft | 166 kts | 172° |
| 2026-04-15 09:16 | -37.56641 | 144.81966 | 3025 ft | 167 kts | 177° |
| 2026-04-15 09:16 | -37.57803 | 144.82090 | 2828 ft | 163 kts | 171° |
| 2026-04-15 09:16 | -37.58981 | 144.82364 | 2584 ft | 178 kts | 172° |
| 2026-04-15 09:16 | -37.60234 | 144.82605 | 2314 ft | 184 kts | 173° |
| 2026-04-15 09:17 | -37.61492 | 144.82784 | 1938 ft | 163 kts | 175° |
| 2026-04-15 09:17 | -37.62425 | 144.82948 | 1663 ft | 120 kts | 173° |
| 2026-04-15 09:17 | -37.63229 | 144.83139 | 1422 ft | 114 kts | 169° |
| 2026-04-15 09:17 | -37.63998 | 144.83285 | 1200 ft | 113 kts | 175° |
| 2026-04-15 09:18 | -37.64729 | 144.83396 | 923 ft | 95 kts | 174° |
| 2026-04-15 09:18 | -37.65374 | 144.83504 | 663 ft | 91 kts | 173° |
| 2026-04-15 09:18 | -37.65984 | 144.83614 | 499 ft | 88 kts | 171° |
| 2026-04-15 09:18 | -37.66568 | 144.83722 | 416 ft | 80 kts | 170° |
| 2026-04-15 09:19 | -37.67111 | 144.83824 | 391 ft | 78 kts | 169° |
| 2026-04-15 09:19 | -37.67632 | 144.83918 | 359 ft | 70 kts | 170° |
| 2026-04-15 09:19 | -37.67994 | 144.83990 | 352 ft | 37 kts | 170° |
| 2026-04-15 09:19 | -37.68266 | 144.84044 | 346 ft | 44 kts | 172° |
| 2026-04-15 09:20 | -37.68499 | 144.84093 | 339 ft | 24 kts | 149° |
| 2026-04-15 09:20 | -37.68552 | 144.84273 | 337 ft | 8 kts | 52° |
| 2026-04-15 09:20 | -37.68468 | 144.84369 | 338 ft | 25 kts | 28° |
| 2026-04-15 09:20 | -37.68390 | 144.84590 | 346 ft | 37 kts | 96° |
| 2026-04-15 09:21 | -37.68412 | 144.84967 | 341 ft | 49 kts | 95° |
| 2026-04-15 09:21 | -37.68479 | 144.85255 | 336 ft | 28 kts | 133° |
| 2026-04-15 09:21 | -37.68645 | 144.85346 | 333 ft | 21 kts | 169° |
| 2026-04-15 09:21 | -37.68720 | 144.85357 | 334 ft | 11 kts | 157° |
| 2026-04-15 09:22 | -37.68740 | 144.85426 | 334 ft | 0 kts | 77° |